Time;durP1;ratioP1;P1;durP2;ratioP2;P2;SDS_P1;SDS_P2;PMS_P1;PMS_P2;Temp;Humidity;BMP_temperature;BMP_pressure;BME280_temperature;BME280_humidity;BME280_pressure;Samples;Min_cycle;Max_cycle;Signal;HPM_P1;HPM_P2
2022/03/29 03:31:35;;;;;;;16.97;8.97;;;5.90;99.90;;;;;;5032902;28;20218;-85
2022/03/29 05:49:17;;;;;;;17.20;3.87;;;4.00;99.90;;;;;;5003651;28;20210;-85
2022/03/29 05:51:43;;;;;;;26.77;4.47;;;4.00;99.90;;;;;;5005740;28;20205;-87
2022/03/29 05:54:09;;;;;;;27.20;3.80;;;4.10;99.90;;;;;;4994626;28;20179;-86
2022/03/29 05:56:35;;;;;;;18.10;3.93;;;4.10;99.90;;;;;;4995389;28;20175;-87
2022/03/29 05:59:01;;;;;;;19.50;3.97;;;4.10;99.90;;;;;;4995619;28;20202;-86
2022/03/29 06:01:27;;;;;;;20.90;5.17;;;4.20;99.90;;;;;;5002870;28;20187;-85
2022/03/29 06:03:52;;;;;;;27.10;5.10;;;4.20;99.90;;;;;;5001250;28;20179;-86
2022/03/29 06:06:18;;;;;;;21.13;4.23;;;4.20;99.90;;;;;;5018565;28;20237;-87
2022/03/29 06:08:44;;;;;;;20.53;3.77;;;4.20;99.90;;;;;;4998311;28;20281;-88
2022/03/29 06:11:09;;;;;;;14.73;4.20;;;4.20;99.90;;;;;;4999037;28;20186;-87
2022/03/29 06:13:36;;;;;;;19.53;3.80;;;4.30;99.90;;;;;;5010083;28;20186;-86
2022/03/29 06:16:02;;;;;;;18.03;3.90;;;4.30;99.90;;;;;;4992714;28;20179;-87
2022/03/29 06:18:30;;;;;;;23.10;3.57;;;4.30;99.90;;;;;;4993835;28;20199;-86
2022/03/29 06:20:56;;;;;;;14.33;3.60;;;4.40;99.90;;;;;;4992892;28;20193;-86
2022/03/29 06:23:23;;;;;;;17.33;3.73;;;4.50;99.90;;;;;;5008192;28;20175;-84
2022/03/29 06:25:50;;;;;;;18.53;4.07;;;4.60;99.90;;;;;;4990375;28;20178;-85
2022/03/29 06:28:17;;;;;;;26.33;3.73;;;4.70;99.90;;;;;;5005832;28;20218;-86
2022/03/29 06:30:44;;;;;;;22.63;4.27;;;4.70;99.90;;;;;;4984854;28;20186;-87
2022/03/29 06:33:11;;;;;;;26.23;4.00;;;4.70;99.90;;;;;;4983305;28;20210;-86
2022/03/29 06:35:40;;;;;;;22.97;3.90;;;4.70;99.90;;;;;;4983656;28;20186;-87
2022/03/29 06:38:07;;;;;;;22.77;4.00;;;4.80;99.90;;;;;;4983509;28;20210;-86
2022/03/29 06:40:33;;;;;;;16.53;3.73;;;4.70;99.90;;;;;;5000173;28;20178;-87
2022/03/29 06:43:00;;;;;;;22.87;3.87;;;4.80;99.90;;;;;;4983279;28;20194;-86
2022/03/29 06:45:27;;;;;;;22.00;4.00;;;4.90;99.90;;;;;;4982904;28;20230;-84
2022/03/29 06:47:53;;;;;;;16.77;4.33;;;4.90;99.90;;;;;;4984183;28;20654;-85
2022/03/29 06:50:19;;;;;;;21.67;3.90;;;4.90;99.90;;;;;;4986159;28;20182;-86
2022/03/29 06:52:47;;;;;;;19.90;3.77;;;5.00;99.90;;;;;;4989362;28;20232;-85
2022/03/29 06:55:16;;;;;;;20.07;3.40;;;5.00;99.90;;;;;;5002653;28;20175;-87
2022/03/29 06:57:43;;;;;;;30.20;4.30;;;5.00;99.90;;;;;;5002811;28;20182;-86
2022/03/29 07:00:09;;;;;;;21.50;3.57;;;5.10;99.90;;;;;;4985975;28;20198;-84
2022/03/29 07:02:36;;;;;;;21.20;3.17;;;5.10;99.90;;;;;;4986588;28;20203;-86
2022/03/29 07:05:03;;;;;;;13.30;3.07;;;5.10;99.90;;;;;;4993523;28;20209;-86
2022/03/29 07:07:29;;;;;;;20.33;3.93;;;5.20;99.90;;;;;;5008801;28;20175;-86
2022/03/29 07:12:50;;;;;;;22.30;3.63;;;5.30;99.90;;;;;;5025381;28;20174;-86
2022/03/29 07:15:16;;;;;;;17.40;3.73;;;5.40;99.90;;;;;;4992681;28;20201;-86
2022/03/29 07:17:43;;;;;;;16.80;3.90;;;5.40;99.90;;;;;;5009880;28;20195;-86
2022/03/29 07:20:09;;;;;;;25.90;3.80;;;5.50;99.90;;;;;;4993550;28;20278;-86
2022/03/29 07:22:36;;;;;;;18.60;3.17;;;5.50;99.90;;;;;;4996201;28;20278;-86
2022/03/29 07:25:02;;;;;;;14.43;2.77;;;5.50;99.90;;;;;;4992544;28;20234;-86
2022/03/29 07:27:28;;;;;;;15.73;2.97;;;5.50;99.90;;;;;;4994990;28;20175;-86
2022/03/29 07:29:54;;;;;;;15.67;3.60;;;5.50;99.90;;;;;;4994858;28;20284;-86
2022/03/29 07:32:21;;;;;;;23.57;3.37;;;5.50;99.90;;;;;;4996969;28;20214;-87
2022/03/29 07:34:47;;;;;;;16.70;3.10;;;5.60;99.90;;;;;;4998374;28;20246;-86
2022/03/29 07:37:12;;;;;;;15.97;3.33;;;5.70;99.90;;;;;;4997227;28;20542;-85
2022/03/29 07:39:40;;;;;;;14.27;2.80;;;5.80;99.90;;;;;;4995725;28;20210;-86
2022/03/29 07:42:07;;;;;;;19.70;3.00;;;5.90;99.90;;;;;;4992981;28;20723;-87
2022/03/29 07:44:33;;;;;;;15.10;3.03;;;5.90;99.90;;;;;;4990128;28;20171;-85
2022/03/29 07:47:00;;;;;;;18.43;2.63;;;6.00;99.90;;;;;;4989923;28;20193;-87
2022/03/29 07:49:27;;;;;;;14.80;2.77;;;6.00;99.90;;;;;;4990814;28;20240;-86
2022/03/29 07:51:52;;;;;;;18.37;3.30;;;6.10;99.90;;;;;;4989530;28;20282;-86
2022/03/29 07:54:18;;;;;;;15.60;3.03;;;6.10;99.90;;;;;;4990058;28;20582;-82
2022/03/29 07:56:44;;;;;;;13.37;2.63;;;6.20;99.90;;;;;;4991589;28;20186;-85
2022/03/29 07:59:10;;;;;;;16.80;2.90;;;6.20;99.90;;;;;;4992213;28;20578;-85
2022/03/29 08:01:36;;;;;;;11.70;2.23;;;6.10;99.90;;;;;;4987166;28;20211;-85
2022/03/29 08:04:04;;;;;;;14.73;2.87;;;6.00;99.90;;;;;;4989866;28;20183;-85
2022/03/29 08:06:30;;;;;;;14.47;2.90;;;6.00;99.90;;;;;;5000716;28;20659;-85
2022/03/29 08:08:56;;;;;;;16.27;2.67;;;6.00;99.90;;;;;;5002877;28;20277;-85
2022/03/29 08:11:22;;;;;;;11.70;2.67;;;6.00;99.90;;;;;;5004624;28;20271;-86
2022/03/29 08:13:49;;;;;;;11.00;2.50;;;6.10;99.90;;;;;;5003812;28;20183;-86
2022/03/29 08:16:16;;;;;;;11.53;2.40;;;6.30;99.90;;;;;;5002944;28;20187;-86
2022/03/29 08:18:42;;;;;;;10.73;2.40;;;6.60;99.90;;;;;;4970395;28;20314;-85
2022/03/29 08:23:59;;;;;;;11.53;2.50;;;6.50;99.90;;;;;;5000724;28;20233;-86
2022/03/29 08:26:25;;;;;;;14.57;3.73;;;6.30;99.90;;;;;;4982106;28;20645;-86
2022/03/29 08:28:50;;;;;;;14.60;3.07;;;6.20;99.90;;;;;;4986857;28;20210;-85
2022/03/29 08:31:17;;;;;;;13.83;2.63;;;6.30;99.90;;;;;;4987655;28;20178;-86
2022/03/29 08:33:43;;;;;;;10.27;2.40;;;6.40;99.90;;;;;;4987614;28;20182;-86
2022/03/29 08:36:09;;;;;;;11.57;3.30;;;6.40;99.90;;;;;;4986147;28;20180;-86
2022/03/29 08:38:35;;;;;;;17.07;2.60;;;6.40;99.90;;;;;;4988193;28;20206;-85
2022/03/29 08:41:00;;;;;;;11.63;2.37;;;6.60;99.90;;;;;;4988637;28;20274;-85
2022/03/29 08:43:29;;;;;;;18.63;2.67;;;6.70;99.90;;;;;;4988270;28;20187;-85
2022/03/29 08:45:55;;;;;;;13.23;2.60;;;6.80;99.90;;;;;;4988396;28;20182;-87
2022/03/29 08:48:26;;;;;;;11.70;2.90;;;6.90;99.90;;;;;;4989242;28;20237;-86
2022/03/29 08:50:53;;;;;;;14.40;2.53;;;6.90;99.90;;;;;;4987529;28;20183;-85
2022/03/29 08:53:20;;;;;;;14.20;2.53;;;7.10;99.90;;;;;;4989277;28;20174;-86
2022/03/29 08:55:47;;;;;;;15.40;3.17;;;7.10;99.90;;;;;;4987008;28;20267;-85
2022/03/29 08:58:15;;;;;;;14.33;3.47;;;7.10;99.90;;;;;;4986144;28;20209;-86
2022/03/29 09:00:44;;;;;;;9.73;3.10;;;7.20;99.90;;;;;;4984735;28;20194;-86
2022/03/29 09:03:11;;;;;;;11.90;3.10;;;7.10;99.90;;;;;;4987888;28;20180;-84
2022/03/29 09:05:37;;;;;;;14.07;3.10;;;7.00;99.90;;;;;;5001390;28;20192;-85
2022/03/29 09:08:08;;;;;;;10.07;2.70;;;7.10;99.90;;;;;;4985507;28;20215;-86
2022/03/29 09:10:45;;;;;;;13.00;3.17;;;7.20;99.90;;;;;;4985822;28;20185;-85
2022/03/29 09:13:27;;;;;;;9.33;2.20;;;7.40;99.90;;;;;;4988568;28;20251;-84
2022/03/29 09:15:55;;;;;;;10.30;2.50;;;7.30;99.90;;;;;;4990011;28;20182;-86
2022/03/29 09:18:22;;;;;;;11.53;2.40;;;7.30;99.90;;;;;;4993259;28;20217;-84
2022/03/29 09:21:13;;;;;;;14.10;2.40;;;7.20;99.70;;;;;;4988269;28;20186;-85
2022/03/29 09:23:40;;;;;;;8.00;1.83;;;7.40;99.70;;;;;;4986457;28;20182;-86
2022/03/29 09:26:06;;;;;;;14.37;2.70;;;7.50;99.40;;;;;;4987262;28;20326;-85
2022/03/29 09:28:37;;;;;;;7.53;2.10;;;7.60;98.90;;;;;;4984922;28;20217;-85
2022/03/29 09:31:17;;;;;;;7.50;1.97;;;7.70;98.90;;;;;;4986212;28;20174;-86
2022/03/29 09:33:43;;;;;;;11.00;2.47;;;7.70;99.10;;;;;;4987392;28;20226;-85
2022/03/29 09:36:12;;;;;;;7.03;1.90;;;7.70;99.60;;;;;;4987251;28;20186;-84
2022/03/29 09:38:44;;;;;;;8.03;2.23;;;7.80;98.90;;;;;;4989273;28;20236;-84
2022/03/29 09:41:29;;;;;;;12.90;2.30;;;7.90;98.40;;;;;;4988474;28;20182;-87
2022/03/29 09:44:10;;;;;;;10.87;2.13;;;8.00;98.60;;;;;;5004128;28;20197;-86
2022/03/29 09:46:59;;;;;;;11.13;2.60;;;8.10;98.60;;;;;;4985337;28;20185;-86
2022/03/29 09:49:26;;;;;;;9.03;1.90;;;8.20;97.80;;;;;;4984207;28;20307;-85
2022/03/29 09:52:09;;;;;;;10.47;3.07;;;8.10;97.30;;;;;;4983922;28;20220;-84
2022/03/29 09:54:34;;;;;;;9.83;2.30;;;8.10;97.60;;;;;;4984173;28;20177;-85
2022/03/29 09:57:01;;;;;;;9.50;2.40;;;8.30;97.70;;;;;;4988865;28;20248;-85
2022/03/29 09:59:26;;;;;;;11.10;2.73;;;8.50;97.10;;;;;;4988262;28;20210;-85
2022/03/29 10:01:56;;;;;;;10.33;2.60;;;8.60;96.50;;;;;;4990265;28;20665;-85
2022/03/29 10:04:24;;;;;;;11.50;2.53;;;8.70;96.10;;;;;;4993749;28;20187;-86
2022/03/29 10:06:52;;;;;;;12.77;2.17;;;8.90;96.00;;;;;;4990284;28;20179;-87
2022/03/29 10:09:37;;;;;;;9.47;1.93;;;9.00;95.00;;;;;;5004903;28;20211;-87
2022/03/29 10:12:08;;;;;;;9.20;2.63;;;9.10;94.70;;;;;;4991219;28;20252;-86
2022/03/29 10:14:36;;;;;;;9.23;2.20;;;9.30;94.60;;;;;;4995456;28;20179;-85
2022/03/29 10:17:03;;;;;;;6.93;1.63;;;9.60;94.30;;;;;;4994082;28;20194;-86
2022/03/29 10:19:29;;;;;;;8.70;2.40;;;9.60;93.10;;;;;;4998104;28;20214;-86
2022/03/29 10:21:57;;;;;;;11.93;2.20;;;9.40;92.70;;;;;;4997333;28;20183;-86
2022/03/29 10:24:27;;;;;;;11.47;2.10;;;9.20;92.40;;;;;;4997148;28;20206;-85
2022/03/29 10:26:56;;;;;;;15.23;2.50;;;9.20;92.30;;;;;;4996476;28;20180;-86
2022/03/29 10:29:22;;;;;;;6.80;2.03;;;9.40;92.20;;;;;;4984806;28;20261;-85
2022/03/29 10:31:47;;;;;;;9.40;3.50;;;10.00;91.90;;;;;;4992691;28;20205;-85
2022/03/29 10:34:28;;;;;;;9.70;2.77;;;10.30;91.40;;;;;;4994869;28;20626;-85
2022/03/29 10:37:12;;;;;;;6.87;2.40;;;11.10;90.10;;;;;;4982038;28;20185;-84
2022/03/29 10:39:56;;;;;;;7.37;1.97;;;11.70;88.00;;;;;;5011574;28;20202;-85
2022/03/29 10:42:42;;;;;;;7.13;2.30;;;12.10;84.20;;;;;;5010429;28;20183;-86
2022/03/29 10:45:18;;;;;;;6.47;2.10;;;11.70;81.90;;;;;;4992893;28;20178;-85
2022/03/29 10:48:01;;;;;;;8.30;2.17;;;11.90;81.30;;;;;;5007220;28;20186;-84
2022/03/29 10:50:57;;;;;;;5.67;2.03;;;12.10;80.60;;;;;;5013297;28;20209;-84
2022/03/29 10:53:32;;;;;;;8.63;2.20;;;11.90;79.50;;;;;;4992814;28;20176;-85
2022/03/29 10:56:15;;;;;;;7.07;1.87;;;11.90;77.90;;;;;;4988886;28;20193;-84
2022/03/29 10:59:02;;;;;;;8.70;1.83;;;11.30;71.20;;;;;;4994984;28;20196;-84
2022/03/29 11:01:29;;;;;;;9.33;2.80;;;11.40;74.60;;;;;;5006749;28;20212;-85
2022/03/29 11:04:04;;;;;;;6.70;1.90;;;11.50;74.70;;;;;;4996930;28;20181;-85
2022/03/29 11:06:30;;;;;;;6.50;1.83;;;11.80;76.20;;;;;;4998976;28;20241;-82
2022/03/29 11:09:05;;;;;;;6.93;2.40;;;13.00;76.20;;;;;;5015071;28;20276;-81
2022/03/29 11:11:41;;;;;;;12.63;2.23;;;13.80;71.30;;;;;;5016289;28;20174;-82
2022/03/29 11:14:25;;;;;;;8.57;1.80;;;13.60;65.80;;;;;;5001176;28;20181;-82
2022/03/29 11:16:51;;;;;;;5.00;1.93;;;14.30;64.00;;;;;;5000694;28;20186;-81
2022/03/29 11:19:46;;;;;;;8.10;1.80;;;13.80;65.70;;;;;;4994977;28;20223;-82
2022/03/29 11:22:25;;;;;;;5.30;2.30;;;13.10;66.20;;;;;;5012006;28;20166;-81
2022/03/29 11:25:22;;;;;;;7.63;1.53;;;13.10;65.00;;;;;;4997061;28;20186;-80
2022/03/29 11:27:48;;;;;;;7.27;2.57;;;13.00;62.40;;;;;;5008786;28;20210;-80
2022/03/29 11:30:15;;;;;;;9.60;2.30;;;13.00;63.90;;;;;;4984446;28;20179;-80
2022/03/29 11:32:47;;;;;;;5.93;2.17;;;13.50;64.30;;;;;;4987223;28;20599;-80
2022/03/29 11:35:19;;;;;;;10.73;2.83;;;12.90;65.60;;;;;;5000580;28;20607;-81
2022/03/29 11:37:46;;;;;;;10.47;2.10;;;13.20;65.90;;;;;;4983806;28;20198;-81
2022/03/29 11:40:14;;;;;;;9.03;2.20;;;12.60;65.30;;;;;;4982090;28;20178;-80
2022/03/29 11:42:53;;;;;;;7.00;2.27;;;11.90;67.10;;;;;;4986264;28;20186;-82
2022/03/29 11:45:24;;;;;;;5.97;1.53;;;12.30;67.20;;;;;;4982854;28;20638;-84
2022/03/29 11:48:07;;;;;;;8.90;2.03;;;13.00;64.40;;;;;;4978602;28;20225;-79
2022/03/29 11:50:38;;;;;;;8.53;2.30;;;13.20;64.00;;;;;;4981336;28;20606;-81
2022/03/29 11:53:23;;;;;;;8.90;1.67;;;13.50;64.40;;;;;;4998959;28;20178;-80
2022/03/29 11:56:02;;;;;;;7.63;2.07;;;12.90;65.20;;;;;;4989199;28;20179;-77
2022/03/29 11:58:33;;;;;;;5.30;1.70;;;12.20;65.50;;;;;;4981521;28;20229;-77
2022/03/29 12:01:02;;;;;;;7.27;1.83;;;12.10;66.20;;;;;;4978171;28;20180;-77
2022/03/29 12:03:33;;;;;;;6.17;2.00;;;11.60;66.40;;;;;;4971609;28;20181;-77
2022/03/29 12:06:20;;;;;;;9.73;1.90;;;11.50;66.70;;;;;;4977779;28;20234;-77
2022/03/29 12:09:07;;;;;;;9.03;2.10;;;12.80;65.30;;;;;;4965774;28;20206;-77
2022/03/29 12:11:39;;;;;;;5.80;1.77;;;14.10;63.10;;;;;;4977500;28;20304;-75
2022/03/29 12:14:11;;;;;;;8.30;1.80;;;15.00;60.80;;;;;;4977000;28;20186;-76
2022/03/29 12:16:37;;;;;;;5.30;1.90;;;14.70;59.50;;;;;;4980814;28;20518;-78
2022/03/29 12:19:15;;;;;;;6.60;2.00;;;15.40;58.90;;;;;;4993520;28;20558;-77
2022/03/29 12:21:45;;;;;;;4.70;1.53;;;15.60;58.20;;;;;;4977956;28;20179;-76
2022/03/29 12:24:12;;;;;;;9.73;2.10;;;15.40;57.00;;;;;;4992284;28;20182;-77
2022/03/29 12:26:49;;;;;;;4.93;1.77;;;15.00;57.40;;;;;;4980477;28;20187;-78
2022/03/29 12:29:17;;;;;;;7.03;2.07;;;15.30;56.80;;;;;;4976924;28;20667;-77
2022/03/29 12:31:44;;;;;;;6.40;1.97;;;14.10;57.30;;;;;;4973766;28;20642;-80
2022/03/29 12:34:12;;;;;;;6.37;1.77;;;12.80;60.20;;;;;;4978682;28;20246;-78
2022/03/29 12:36:48;;;;;;;8.87;2.03;;;14.30;59.80;;;;;;4965353;28;20183;-76
2022/03/29 12:39:14;;;;;;;59.70;6.50;;;15.70;56.70;;;;;;4976101;28;20241;-78
2022/03/29 12:41:51;;;;;;;50.40;5.60;;;15.50;56.60;;;;;;4972087;28;20186;-80
2022/03/29 12:44:34;;;;;;;120.77;11.17;;;13.80;58.10;;;;;;4980515;28;20217;-78
2022/03/29 12:47:00;;;;;;;123.03;11.70;;;13.20;60.70;;;;;;4967758;28;20286;-79
2022/03/29 12:49:27;;;;;;;13.93;2.60;;;14.80;61.60;;;;;;4982742;28;20211;-79
2022/03/29 12:51:55;;;;;;;9.30;2.30;;;16.10;56.00;;;;;;4974911;28;20178;-79
2022/03/29 12:54:30;;;;;;;11.47;3.00;;;16.40;53.90;;;;;;4978827;28;20182;-78
2022/03/29 12:56:58;;;;;;;10.90;2.13;;;16.20;53.10;;;;;;4977958;28;20218;-79
2022/03/29 12:59:36;;;;;;;13.00;2.67;;;15.40;53.30;;;;;;4969115;28;20265;-77
2022/03/29 13:02:22;;;;;;;12.90;2.23;;;14.90;56.20;;;;;;4987417;28;20639;-77
2022/03/29 13:04:52;;;;;;;8.57;2.33;;;13.60;58.20;;;;;;4965582;28;20248;-77
2022/03/29 13:07:49;;;;;;;9.70;2.10;;;11.90;60.80;;;;;;4972045;28;20276;-77
2022/03/29 13:10:17;;;;;;;12.97;2.37;;;11.10;63.90;;;;;;4979966;28;20279;-78
2022/03/29 13:13:00;;;;;;;9.63;2.47;;;10.80;66.10;;;;;;4982080;28;20177;-80
2022/03/29 13:15:44;;;;;;;9.60;2.40;;;10.30;68.20;;;;;;4981699;28;20581;-79
2022/03/29 13:18:28;;;;;;;9.47;2.20;;;10.50;68.90;;;;;;4995710;28;20212;-78
2022/03/29 13:21:07;;;;;;;9.90;2.07;;;12.00;67.30;;;;;;4960391;28;20183;-77
2022/03/29 13:23:37;;;;;;;8.77;2.77;;;13.00;64.40;;;;;;4977035;28;20174;-78
2022/03/29 13:26:04;;;;;;;11.43;2.10;;;13.00;65.20;;;;;;4977304;28;20171;-78
2022/03/29 13:28:30;;;;;;;8.80;2.10;;;14.30;63.90;;;;;;4976814;28;20212;-78
2022/03/29 13:30:56;;;;;;;9.63;2.40;;;15.90;60.00;;;;;;4976667;28;20171;-78
2022/03/29 13:33:22;;;;;;;8.03;2.33;;;16.40;58.00;;;;;;4977085;28;20187;-78
2022/03/29 13:35:52;;;;;;;10.27;2.60;;;16.10;57.90;;;;;;4977025;28;20187;-78
2022/03/29 13:38:19;;;;;;;9.50;2.27;;;14.60;61.40;;;;;;4976559;28;20207;-77
2022/03/29 13:40:46;;;;;;;6.53;1.90;;;13.00;61.90;;;;;;4977081;28;20183;-77
2022/03/29 13:43:13;;;;;;;12.13;2.30;;;10.90;66.00;;;;;;4976694;28;20643;-78
2022/03/29 13:45:39;;;;;;;7.13;2.50;;;10.00;70.00;;;;;;4976709;28;20635;-78
2022/03/29 13:48:05;;;;;;;14.80;3.17;;;9.90;72.50;;;;;;4980227;28;20218;-78
2022/03/29 13:50:31;;;;;;;7.80;2.73;;;12.00;69.90;;;;;;4980146;28;20174;-78
2022/03/29 13:52:57;;;;;;;14.33;6.43;;;14.60;63.90;;;;;;4980835;28;20201;-78
2022/03/29 13:55:23;;;;;;;9.27;2.10;;;15.90;60.20;;;;;;4980140;28;20170;-78
2022/03/29 13:57:49;;;;;;;8.10;2.33;;;15.90;57.00;;;;;;4979866;28;20185;-79
2022/03/29 14:00:16;;;;;;;6.40;2.40;;;15.40;57.40;;;;;;4979705;28;20240;-80
2022/03/29 14:02:42;;;;;;;11.17;2.03;;;14.70;58.60;;;;;;4995992;28;20214;-78
2022/03/29 14:05:08;;;;;;;9.27;2.10;;;15.00;58.40;;;;;;4997272;28;20187;-77
2022/03/29 14:07:33;;;;;;;7.43;1.97;;;15.30;58.20;;;;;;4995401;28;20182;-80
2022/03/29 14:10:04;;;;;;;7.20;1.90;;;14.90;57.80;;;;;;4996666;28;20214;-78
2022/03/29 14:12:43;;;;;;;8.30;2.00;;;13.80;59.40;;;;;;4980633;28;20171;-79
2022/03/29 14:15:41;;;;;;;6.97;2.10;;;13.60;61.10;;;;;;4980290;28;20182;-79
2022/03/29 14:18:31;;;;;;;8.23;2.60;;;12.80;61.40;;;;;;4998276;28;20202;-78
2022/03/29 14:21:03;;;;;;;9.00;2.40;;;13.80;61.30;;;;;;4995627;28;20193;-77
2022/03/29 14:23:40;;;;;;;8.03;2.10;;;13.80;59.70;;;;;;4996445;28;20213;-78
2022/03/29 14:26:35;;;;;;;11.17;2.63;;;13.70;57.20;;;;;;4995943;28;20218;-76
2022/03/29 14:29:04;;;;;;;6.93;3.17;;;12.30;59.60;;;;;;4997199;28;20225;-81
2022/03/29 14:31:44;;;;;;;7.37;1.60;;;12.10;61.40;;;;;;5001867;28;20559;-81
2022/03/29 14:34:35;;;;;;;6.13;1.60;;;11.10;61.30;;;;;;5003357;28;20228;-80
2022/03/29 14:37:05;;;;;;;5.00;1.20;;;10.90;61.80;;;;;;4975997;28;20166;-78
2022/03/29 14:39:45;;;;;;;9.23;2.17;;;11.50;61.00;;;;;;4983398;28;20209;-80
2022/03/29 14:42:19;;;;;;;5.47;1.63;;;11.40;61.40;;;;;;4984323;28;20200;-80
2022/03/29 14:44:54;;;;;;;9.27;1.90;;;11.10;63.30;;;;;;4988972;28;20559;-80
2022/03/29 14:47:23;;;;;;;5.40;1.43;;;10.90;65.40;;;;;;4990648;28;20264;-81
2022/03/29 14:49:58;;;;;;;7.37;2.10;;;11.70;64.30;;;;;;4987039;28;20214;-81
2022/03/29 14:52:48;;;;;;;5.47;1.83;;;12.10;63.10;;;;;;4981178;28;20174;-77
2022/03/29 14:55:26;;;;;;;5.23;1.73;;;11.90;60.50;;;;;;4964307;28;20179;-78
2022/03/29 14:58:01;;;;;;;10.83;2.20;;;11.30;61.10;;;;;;4984896;28;20204;-78
2022/03/29 15:00:52;;;;;;;7.63;2.00;;;11.00;62.90;;;;;;5000735;28;20274;-79
2022/03/29 15:03:48;;;;;;;5.23;1.63;;;11.40;63.30;;;;;;5005318;28;20179;-80
2022/03/29 15:07:16;;;;;;;8.43;2.33;;;12.00;61.60;;;;;;4978566;28;20183;-79
2022/03/29 15:09:59;;;;;;;9.20;2.20;;;12.60;60.40;;;;;;4923498;29;20213;-79
2022/03/29 15:12:25;;;;;;;3.73;1.80;;;12.30;62.10;;;;;;4908241;29;20189;-79
2022/03/29 15:15:03;;;;;;;6.40;2.10;;;12.60;60.50;;;;;;4981066;28;20187;-78
2022/03/29 15:17:41;;;;;;;8.00;2.30;;;12.50;60.80;;;;;;4984255;28;20170;-79
2022/03/29 15:20:16;;;;;;;8.67;1.80;;;12.00;62.60;;;;;;5000511;28;20179;-79
2022/03/29 15:22:52;;;;;;;9.97;2.10;;;12.00;62.60;;;;;;4986385;28;20201;-78
2022/03/29 15:25:18;;;;;;;6.97;1.57;;;12.40;61.90;;;;;;5000058;28;20186;-77
2022/03/29 15:27:53;;;;;;;7.77;2.33;;;12.70;59.60;;;;;;4984473;28;20289;-79
2022/03/29 15:30:29;;;;;;;7.17;2.20;;;12.90;59.00;;;;;;4986949;28;20178;-81
2022/03/29 15:32:56;;;;;;;6.13;2.23;;;13.30;58.70;;;;;;5003674;28;20205;-79
2022/03/29 15:35:28;;;;;;;5.20;1.80;;;14.10;57.40;;;;;;4988932;28;20179;-80
2022/03/29 15:37:59;;;;;;;6.63;2.00;;;14.40;55.40;;;;;;4982508;28;20288;-80
2022/03/29 15:40:25;;;;;;;10.57;2.20;;;13.90;55.90;;;;;;4989945;28;20238;-79
2022/03/29 15:42:51;;;;;;;8.30;1.87;;;12.40;58.80;;;;;;5007895;28;20256;-80
2022/03/29 15:45:21;;;;;;;5.57;1.53;;;11.90;60.50;;;;;;4991898;28;20188;-81
2022/03/29 15:47:46;;;;;;;9.30;2.20;;;11.80;61.10;;;;;;4986261;28;20178;-79
2022/03/29 15:50:13;;;;;;;6.97;1.77;;;11.70;61.30;;;;;;4989698;28;20209;-79
2022/03/29 15:52:49;;;;;;;10.13;4.00;;;11.20;61.30;;;;;;4992074;28;20178;-80
2022/03/29 15:55:18;;;;;;;10.33;4.17;;;10.80;63.70;;;;;;5008795;28;20190;-79
2022/03/29 15:58:23;;;;;;;6.63;2.10;;;10.80;63.90;;;;;;5009051;28;20269;-79
2022/03/29 16:00:57;;;;;;;6.53;2.40;;;10.30;63.60;;;;;;4990865;28;20192;-79
2022/03/29 16:03:23;;;;;;;11.37;2.40;;;10.00;64.70;;;;;;5007024;28;20179;-80
2022/03/29 16:05:53;;;;;;;10.13;3.07;;;9.50;65.80;;;;;;4996112;28;20183;-80
2022/03/29 16:08:34;;;;;;;9.77;2.20;;;9.00;67.30;;;;;;4985571;28;20217;-79
2022/03/29 16:11:35;;;;;;;10.30;3.10;;;9.00;68.10;;;;;;4991154;28;20175;-79
2022/03/29 16:14:29;;;;;;;12.87;4.13;;;8.80;68.30;;;;;;5005603;28;20225;-80
2022/03/29 16:17:04;;;;;;;11.27;2.20;;;8.70;70.10;;;;;;5003770;28;20204;-82
2022/03/29 16:19:33;;;;;;;11.27;2.27;;;8.60;70.20;;;;;;4985283;28;20210;-82
2022/03/29 16:22:12;;;;;;;9.03;2.70;;;8.30;71.20;;;;;;4969992;28;20255;-81
2022/03/29 16:25:03;;;;;;;8.87;2.30;;;8.30;71.60;;;;;;5011848;28;20260;-81
2022/03/29 16:28:08;;;;;;;9.60;3.60;;;8.30;71.90;;;;;;4955350;28;20257;-83
2022/03/29 16:30:38;;;;;;;13.10;3.93;;;8.40;70.50;;;;;;5006309;28;20192;-82
2022/03/29 16:33:19;;;;;;;12.00;4.10;;;8.30;70.10;;;;;;4990521;28;20186;-81
2022/03/29 16:36:05;;;;;;;14.63;5.20;;;8.20;70.10;;;;;;4986890;28;20638;-82
2022/03/29 16:38:41;;;;;;;10.83;2.90;;;8.20;69.50;;;;;;5016048;28;20567;-82
2022/03/29 16:41:13;;;;;;;11.83;2.70;;;8.10;69.60;;;;;;4989024;28;20178;-82
2022/03/29 16:43:54;;;;;;;8.30;2.60;;;8.00;69.40;;;;;;5004702;28;20183;-78
2022/03/29 16:46:20;;;;;;;6.27;1.57;;;8.00;69.40;;;;;;4989038;28;20190;-79
2022/03/29 16:48:57;;;;;;;8.83;1.93;;;7.90;71.20;;;;;;5001059;28;20219;-78
2022/03/29 16:51:33;;;;;;;8.43;2.17;;;7.80;71.70;;;;;;5005794;28;20240;-80
2022/03/29 16:54:03;;;;;;;10.07;2.13;;;7.70;73.40;;;;;;4982589;28;20185;-78
2022/03/29 16:56:30;;;;;;;7.00;1.97;;;7.50;75.60;;;;;;4982531;28;20186;-78
2022/03/29 17:02:26;;;;;;;;;;;;;;;;;;;;;
2022/03/29 17:05:35;;;;;;;;;;;;;;;;;;;;;
2022/03/29 17:08:47;;;;;;;;;;;;;;;;;;;;;
2022/03/29 17:12:37;;;;;;;11.20;2.27;;;7.40;80.90;;;;;;4993835;28;20226;-79
2022/03/29 17:15:20;;;;;;;18.30;6.73;;;7.40;81.80;;;;;;4939014;29;20696;-80
2022/03/29 17:18:25;;;;;;;10.03;3.23;;;7.30;82.90;;;;;;4956267;23;20183;-80
2022/03/29 17:21:17;;;;;;;12.13;2.80;;;7.20;83.80;;;;;;4906381;29;20237;-80
2022/03/29 17:27:30;;;;;;;14.13;2.27;;;7.00;85.50;;;;;;4921729;29;20345;-83
2022/03/29 17:30:36;;;;;;;15.00;5.03;;;7.00;86.40;;;;;;4930203;28;20721;-83
2022/03/29 17:33:21;;;;;;;15.23;2.63;;;6.90;87.60;;;;;;4974951;28;20874;-80
2022/03/29 17:36:25;;;;;;;9.80;2.40;;;6.70;88.60;;;;;;4968131;28;20260;-82
2022/03/29 17:39:00;;;;;;;9.47;2.03;;;6.70;90.00;;;;;;4974839;28;20197;-80
2022/03/29 17:41:31;;;;;;;9.97;3.50;;;6.60;90.30;;;;;;4980699;28;20176;-82
2022/03/29 17:44:10;;;;;;;19.50;7.90;;;6.60;90.70;;;;;;4994641;28;20251;-82
2022/03/29 17:50:17;;;;;;;10.37;3.33;;;6.60;91.40;;;;;;4980188;28;20325;-79
2022/03/29 17:53:00;;;;;;;8.60;2.10;;;6.60;92.10;;;;;;4977374;28;20184;-82
2022/03/29 17:56:10;;;;;;;8.83;2.23;;;6.60;92.70;;;;;;4985503;28;20200;-84
2022/03/29 17:59:21;;;;;;;11.20;2.30;;;6.50;93.40;;;;;;4984157;28;20260;-81
2022/03/29 18:02:28;;;;;;;10.00;3.13;;;6.50;93.50;;;;;;5007508;28;20211;-80
2022/03/29 18:04:56;;;;;;;8.70;2.37;;;6.40;93.60;;;;;;4992854;28;20189;-78
2022/03/29 18:07:34;;;;;;;11.57;2.07;;;6.30;93.50;;;;;;4975711;28;20174;-83
2022/03/29 18:10:44;;;;;;;16.67;4.73;;;6.20;93.90;;;;;;5001658;28;20258;-84
2022/03/29 18:13:24;;;;;;;12.77;2.80;;;6.20;94.70;;;;;;4971817;28;20542;-84
2022/03/29 18:16:03;;;;;;;7.33;2.23;;;6.20;95.00;;;;;;4971137;28;20260;-85
2022/03/29 18:18:30;;;;;;;10.70;2.27;;;6.10;95.40;;;;;;4980774;28;20205;-83
2022/03/29 18:21:11;;;;;;;8.23;2.47;;;6.10;95.60;;;;;;4973205;28;20204;-83
2022/03/29 18:27:28;;;;;;;10.63;2.50;;;6.10;96.20;;;;;;4971809;28;20200;-83
2022/03/29 18:30:24;;;;;;;9.80;2.30;;;6.00;96.40;;;;;;4990967;28;20299;-86
2022/03/29 18:32:59;;;;;;;10.90;2.67;;;6.10;97.10;;;;;;4967990;28;20187;-86
2022/03/29 18:35:31;;;;;;;14.30;2.83;;;6.10;96.70;;;;;;4973885;28;20179;-87
2022/03/29 18:47:24;;;;;;;51.90;18.00;;;5.90;97.00;;;;;;4999696;28;20188;-84
2022/03/29 18:50:44;;;;;;;6.60;2.50;;;5.90;97.40;;;;;;4969049;28;20204;-85
2022/03/29 18:53:46;;;;;;;;;;;;;;;;;;;;;
2022/03/29 18:57:29;;;;;;;8.57;2.70;;;5.80;97.70;;;;;;4985450;28;20187;-88
2022/03/29 19:01:09;;;;;;;7.83;2.93;;;5.80;97.70;;;;;;4937725;28;20186;-86
2022/03/29 19:07:43;;;;;;;10.93;3.07;;;5.80;98.20;;;;;;4923469;29;20217;-86
2022/03/29 19:11:11;;;;;;;;;;;;;;;;;;;;;
2022/03/29 19:15:05;;;;;;;;;;;;;;;;;;;;;
2022/03/29 19:17:39;;;;;;;6.73;2.13;;;5.60;98.70;;;;;;4978016;28;20528;-87
2022/03/29 19:20:54;;;;;;;6.80;1.73;;;5.70;98.90;;;;;;4977217;28;20259;-84
2022/03/29 19:23:49;;;;;;;11.13;2.60;;;5.50;99.10;;;;;;4961949;28;20624;-86
2022/03/29 19:26:30;;;;;;;10.57;2.60;;;5.60;99.20;;;;;;4961437;28;20591;-86
2022/03/29 19:29:33;;;;;;;13.17;3.03;;;5.50;99.10;;;;;;4937742;28;20228;-84
2022/03/29 19:32:34;;;;;;;10.57;2.47;;;5.50;99.30;;;;;;4913188;28;20188;-83
2022/03/29 19:35:23;;;;;;;;;;;;;;;;;;;;;
2022/03/29 19:38:24;;;;;;;10.60;2.30;;;5.50;99.40;;;;;;4960903;28;20272;-84
2022/03/29 19:41:16;;;;;;;9.57;2.43;;;5.50;99.60;;;;;;4971667;28;20678;-84
2022/03/29 19:44:19;;;;;;;7.07;2.10;;;5.40;99.80;;;;;;4952928;29;20218;-85
2022/03/29 19:47:17;;;;;;;13.97;2.37;;;5.40;99.90;;;;;;4961278;28;20195;-84
2022/03/29 19:51:03;;;;;;;15.07;2.83;;;5.40;99.90;;;;;;4996412;28;20222;-89
2022/03/29 19:53:56;;;;;;;;;;;;;;;;;;;;;
2022/03/29 20:01:19;;;;;;;10.03;2.30;;;5.40;99.90;;;;;;4971060;28;20255;-86
2022/03/29 20:04:12;;;;;;;;;;;;;;;;;;;;;
2022/03/29 20:07:27;;;;;;;10.03;3.17;;;5.30;99.90;;;;;;4985180;28;20199;-87
2022/03/29 20:10:07;;;;;;;9.70;2.60;;;5.20;99.90;;;;;;4981727;28;20207;-87